Guarapari, Brazil
Current Conditions -  °F | °C
As of 1:00 PM on Wednesday 26 Nov 2014 (Local Time) from SBVT Reporting Station
Broken Clouds Broken Clouds  
Wind Chill: 86°   Ceiling: 9000
Heat Index: 88°   Visibility: 6mi
Dew Point: 66°   Wind: 20mph
Humidity: 51%   Direction: 20°NNE
Pressure: 29.88"   Gusts: 31mph
Location:  20.66°S, 40.5°W
Report Text: SBVT 261500Z 02017G27KT 9999 SCT030 BKN090 30/19 Q1012
Loading
Personal Weather Stations






























Interactive Weather Map New forecast layout! Learn more

10-Day Weather Forecast

Advertisements
Track Severe Weather on mobile